createdAt,value
2018-09-03T00:00:04.869Z,18.10
2018-09-03T00:02:33.864Z,18.10
2018-09-03T00:05:03.506Z,18.00
2018-09-03T00:07:32.486Z,18.00
2018-09-03T00:10:01.607Z,18.10
2018-09-03T00:12:30.630Z,18.10
2018-09-03T00:14:59.604Z,18.00
2018-09-03T00:17:28.741Z,18.00
2018-09-03T00:19:57.793Z,17.90
2018-09-03T00:22:27.469Z,17.90
2018-09-03T00:24:56.595Z,17.90
2018-09-03T00:27:27.124Z,17.80
2018-09-03T00:29:56.339Z,17.70
2018-09-03T00:32:31.098Z,17.60
2018-09-03T00:35:05.649Z,17.60
2018-09-03T00:37:40.119Z,17.60
2018-09-03T00:40:14.570Z,17.60
2018-09-03T00:42:48.829Z,17.60
2018-09-03T00:45:23.336Z,17.60
2018-09-03T00:47:52.347Z,17.60
2018-09-03T00:50:21.596Z,17.60
2018-09-03T00:52:51.103Z,17.60
2018-09-03T00:55:20.088Z,17.70
2018-09-03T00:57:49.062Z,17.70
2018-09-03T01:00:18.130Z,17.70
2018-09-03T01:02:47.346Z,17.80
2018-09-03T01:05:16.363Z,17.80
2018-09-03T01:07:45.458Z,17.80
2018-09-03T01:10:14.426Z,17.80
2018-09-03T01:12:43.491Z,17.70
2018-09-03T01:15:12.553Z,17.70
2018-09-03T01:17:41.504Z,17.60
2018-09-03T01:20:10.500Z,17.60
2018-09-03T01:22:39.486Z,17.50
2018-09-03T01:25:08.595Z,17.40
2018-09-03T01:27:37.575Z,17.40
2018-09-03T01:30:06.598Z,17.30
2018-09-03T01:32:35.558Z,17.30
2018-09-03T01:35:04.725Z,17.20
2018-09-03T01:37:33.697Z,17.20
2018-09-03T01:40:02.683Z,17.20
2018-09-03T01:42:31.694Z,17.20
2018-09-03T01:45:00.674Z,17.10
2018-09-03T01:47:29.724Z,17.20
2018-09-03T01:49:58.755Z,17.20
2018-09-03T01:52:27.776Z,17.20
2018-09-03T01:54:56.876Z,17.20
2018-09-03T01:57:25.947Z,17.20
2018-09-03T01:59:54.943Z,17.20
2018-09-03T02:02:23.914Z,17.20
2018-09-03T02:04:53.822Z,17.20
2018-09-03T02:07:22.842Z,17.20
2018-09-03T02:09:51.827Z,17.20
2018-09-03T02:12:20.974Z,17.20
2018-09-03T02:14:49.961Z,17.20
2018-09-03T02:17:19.834Z,17.20
2018-09-03T02:19:48.861Z,17.20
2018-09-03T02:22:17.867Z,17.10
2018-09-03T02:24:46.849Z,17.00
2018-09-03T02:27:15.798Z,17.00
2018-09-03T02:29:44.774Z,16.90
2018-09-03T02:32:13.839Z,16.90
2018-09-03T02:34:49.508Z,16.80
2018-09-03T02:37:18.506Z,16.80
2018-09-03T02:39:47.504Z,16.70
2018-09-03T02:42:16.474Z,16.70
2018-09-03T02:44:45.434Z,16.70
2018-09-03T02:47:14.420Z,16.60
2018-09-03T02:49:43.553Z,16.60
2018-09-03T02:52:12.547Z,16.60
2018-09-03T02:54:41.492Z,16.50
2018-09-03T02:57:10.600Z,16.50
2018-09-03T02:59:39.632Z,16.50
2018-09-03T03:02:09.274Z,16.50
2018-09-03T03:04:38.388Z,16.60
2018-09-03T03:07:07.436Z,16.60
2018-09-03T03:09:36.424Z,16.60
2018-09-03T03:12:05.436Z,16.60
2018-09-03T03:14:34.435Z,16.60
2018-09-03T03:17:03.466Z,16.70
2018-09-03T03:19:32.490Z,16.70
2018-09-03T03:22:01.995Z,16.70
2018-09-03T03:24:30.970Z,16.80
2018-09-03T03:26:59.958Z,16.80
2018-09-03T03:29:28.946Z,16.80
2018-09-03T03:31:57.951Z,16.80
2018-09-03T03:34:26.915Z,16.80
2018-09-03T03:36:56.345Z,16.80
2018-09-03T03:39:25.286Z,16.90
2018-09-03T03:41:54.341Z,16.90
2018-09-03T03:44:23.331Z,16.90
2018-09-03T03:46:52.266Z,16.90
2018-09-03T03:49:21.272Z,16.90
2018-09-03T03:51:50.260Z,16.90
2018-09-03T03:54:19.211Z,16.90
2018-09-03T03:56:48.187Z,16.90
2018-09-03T03:59:17.287Z,16.90
2018-09-03T04:01:46.834Z,17.00
2018-09-03T04:04:16.390Z,17.00
2018-09-03T04:06:45.373Z,17.00
2018-09-03T04:09:14.339Z,16.90
2018-09-03T04:11:43.932Z,16.90
2018-09-03T04:14:12.896Z,16.90
2018-09-03T04:16:41.928Z,16.90
2018-09-03T04:19:10.910Z,16.90
2018-09-03T04:21:40.502Z,16.80
2018-09-03T04:24:09.460Z,16.80
2018-09-03T04:26:38.782Z,16.80
2018-09-03T04:29:07.844Z,16.70
2018-09-03T04:31:36.845Z,16.70
2018-09-03T04:34:05.941Z,16.70
2018-09-03T04:36:35.519Z,16.60
2018-09-03T04:39:06.675Z,16.60
2018-09-03T04:41:35.977Z,16.50
2018-09-03T04:44:05.318Z,16.50
2018-09-03T04:46:34.619Z,16.50
2018-09-03T04:49:03.659Z,16.50
2018-09-03T04:51:32.603Z,16.50
2018-09-03T04:54:01.544Z,16.50
2018-09-03T04:56:30.636Z,16.50
2018-09-03T04:58:59.755Z,16.50
2018-09-03T05:01:28.688Z,16.50
2018-09-03T05:03:57.768Z,16.50
2018-09-03T05:06:41.905Z,16.50
2018-09-03T05:09:10.889Z,16.60
2018-09-03T05:11:39.991Z,16.60
2018-09-03T05:14:09.059Z,16.60
2018-09-03T05:16:38.118Z,16.70
2018-09-03T05:19:07.112Z,16.70
2018-09-03T05:21:36.078Z,16.70
2018-09-03T05:24:05.120Z,16.70
2018-09-03T05:26:34.235Z,16.80
2018-09-03T05:29:04.031Z,16.80
2018-09-03T05:31:33.350Z,16.90
2018-09-03T05:34:02.345Z,16.90
2018-09-03T05:36:31.423Z,16.90
2018-09-03T05:39:00.513Z,17.00
2018-09-03T05:41:29.486Z,17.00
2018-09-03T05:43:58.940Z,17.10
2018-09-03T05:46:28.031Z,17.10
2018-09-03T05:48:57.125Z,17.20
2018-09-03T05:51:26.116Z,17.30
2018-09-03T05:53:55.203Z,17.40
2018-09-03T05:56:24.277Z,17.50
2018-09-03T05:58:53.950Z,17.60
2018-09-03T06:01:22.951Z,17.60
2018-09-03T06:03:52.011Z,17.80
2018-09-03T06:06:21.014Z,18.00
2018-09-03T06:08:50.043Z,18.10
2018-09-03T06:11:19.103Z,18.40
2018-09-03T06:13:48.063Z,18.60
2018-09-03T06:16:17.144Z,18.80
2018-09-03T06:18:46.217Z,18.90
2018-09-03T06:21:15.325Z,19.00
2018-09-03T06:23:44.286Z,19.20
2018-09-03T06:26:13.706Z,19.60
2018-09-03T06:28:42.640Z,19.70
2018-09-03T06:31:11.631Z,19.90
2018-09-03T06:33:41.008Z,20.30
2018-09-03T06:36:10.000Z,20.30
2018-09-03T06:38:39.134Z,20.40
2018-09-03T06:41:08.185Z,20.60
2018-09-03T06:43:37.303Z,20.70
2018-09-03T06:46:06.645Z,21.00
2018-09-03T06:48:35.620Z,21.00
2018-09-03T06:51:04.632Z,20.90
2018-09-03T06:53:33.739Z,20.90
2018-09-03T06:56:02.945Z,21.00
2018-09-03T07:01:07.251Z,21.40
2018-09-03T07:03:36.229Z,21.50
2018-09-03T07:06:05.835Z,21.60
2018-09-03T07:08:34.844Z,21.40
2018-09-03T07:11:03.884Z,21.30
2018-09-03T07:13:32.958Z,21.40
2018-09-03T07:16:01.928Z,21.50
2018-09-03T07:18:30.923Z,21.50
2018-09-03T07:21:00.039Z,21.40
2018-09-03T07:23:29.040Z,21.20
2018-09-03T07:25:58.109Z,21.10
2018-09-03T07:28:27.084Z,21.20
2018-09-03T07:30:56.521Z,20.90
2018-09-03T07:33:25.522Z,20.90
2018-09-03T07:35:55.004Z,20.80
2018-09-03T07:38:24.345Z,20.90
2018-09-03T07:40:53.311Z,21.00
2018-09-03T07:43:22.439Z,21.00
2018-09-03T07:45:51.479Z,21.00
2018-09-03T07:48:20.477Z,21.10
2018-09-03T07:50:49.461Z,21.20
2018-09-03T07:53:18.416Z,21.30
2018-09-03T07:55:47.724Z,21.50
2018-09-03T07:58:16.705Z,21.70
2018-09-03T08:00:45.819Z,21.80
2018-09-03T08:03:14.803Z,22.10
2018-09-03T08:05:43.895Z,22.50
2018-09-03T08:08:12.896Z,22.40
2018-09-03T08:10:41.866Z,22.60
2018-09-03T08:13:15.063Z,22.60
2018-09-03T08:15:44.878Z,23.20
2018-09-03T08:18:14.867Z,23.40
2018-09-03T08:20:45.141Z,24.60
2018-09-03T08:23:14.277Z,24.30
2018-09-03T08:25:43.351Z,24.00
2018-09-03T08:28:12.500Z,23.40
2018-09-03T08:30:41.503Z,23.50
2018-09-03T08:33:10.611Z,23.50
2018-09-03T08:35:39.719Z,23.30
2018-09-03T08:38:08.775Z,23.30
2018-09-03T08:40:37.788Z,23.60
2018-09-03T08:43:07.174Z,24.20
2018-09-03T08:45:36.153Z,24.70
2018-09-03T08:48:05.347Z,25.20
2018-09-03T08:50:34.434Z,25.30
2018-09-03T08:53:04.424Z,25.40
2018-09-03T08:55:33.372Z,25.50
2018-09-03T08:58:02.392Z,26.10
2018-09-03T09:00:31.464Z,26.50
2018-09-03T09:03:01.347Z,27.50
2018-09-03T09:05:30.338Z,27.10
2018-09-03T09:07:59.447Z,27.40
2018-09-03T09:10:28.472Z,28.60
2018-09-03T09:12:57.591Z,27.80
2018-09-03T09:15:26.668Z,28.00
2018-09-03T09:17:55.772Z,28.00
2018-09-03T09:20:24.746Z,27.90
2018-09-03T09:22:53.767Z,27.20
2018-09-03T09:25:22.796Z,27.50
2018-09-03T09:27:51.777Z,27.90
2018-09-03T09:30:20.804Z,28.50
2018-09-03T09:32:49.763Z,28.90
2018-09-03T09:35:18.782Z,28.30
2018-09-03T09:37:47.742Z,28.40
2018-09-03T09:45:59.642Z,28.80
2018-09-03T09:48:28.727Z,29.10
2018-09-03T09:50:57.712Z,29.60
2018-09-03T09:53:26.744Z,29.80
2018-09-03T09:55:55.708Z,30.00
2018-09-03T09:58:25.092Z,31.00
2018-09-03T10:00:59.495Z,29.50
2018-09-03T10:03:28.473Z,29.50
2018-09-03T10:05:58.238Z,29.80
2018-09-03T10:08:27.236Z,30.00
2018-09-03T10:10:56.239Z,29.90
2018-09-03T10:13:25.303Z,29.70
2018-09-03T10:15:54.311Z,30.80
2018-09-03T10:18:23.448Z,31.60
2018-09-03T10:20:52.510Z,31.50
2018-09-03T10:23:21.463Z,32.80
2018-09-03T10:25:50.547Z,32.40
2018-09-03T10:28:19.520Z,32.60
2018-09-03T10:30:48.497Z,32.90
2018-09-03T10:33:17.502Z,32.40
2018-09-03T10:35:46.514Z,32.50
2018-09-03T10:38:15.577Z,32.80
2018-09-03T10:40:44.613Z,32.30
2018-09-03T10:43:13.574Z,32.30
2018-09-03T10:45:43.411Z,32.50
2018-09-03T10:48:13.507Z,32.30
2018-09-03T10:50:42.562Z,32.70
2018-09-03T10:53:11.553Z,33.00
2018-09-03T10:55:41.392Z,33.20
2018-09-03T10:58:11.330Z,32.10
2018-09-03T11:00:40.732Z,31.80
2018-09-03T11:03:09.882Z,32.10
2018-09-03T11:05:38.859Z,32.10
2018-09-03T11:08:08.322Z,32.50
2018-09-03T11:10:37.318Z,32.60
2018-09-03T11:13:06.463Z,32.60
2018-09-03T11:15:35.560Z,32.60
2018-09-03T11:18:04.615Z,32.80
2018-09-03T11:20:34.264Z,33.30
2018-09-03T11:23:03.345Z,33.70
2018-09-03T11:25:33.504Z,34.60
2018-09-03T11:28:02.728Z,34.10
2018-09-03T11:30:32.422Z,33.70
2018-09-03T11:33:02.793Z,33.30
2018-09-03T11:35:31.860Z,33.00
2018-09-03T11:38:00.904Z,32.60
2018-09-03T11:40:30.902Z,32.40
2018-09-03T11:43:00.408Z,32.30
2018-09-03T11:45:29.508Z,32.00
2018-09-03T11:47:58.526Z,31.30
2018-09-03T11:50:27.567Z,31.40
2018-09-03T11:52:57.055Z,31.70
2018-09-03T11:55:26.156Z,31.80
2018-09-03T11:57:55.327Z,32.00
2018-09-03T12:00:28.221Z,32.30
2018-09-03T12:02:57.625Z,31.90
2018-09-03T12:05:27.340Z,31.20
2018-09-03T12:07:56.578Z,31.00
2018-09-03T12:10:26.097Z,31.20
2018-09-03T12:12:55.124Z,31.40
2018-09-03T12:15:34.936Z,31.10
2018-09-03T12:18:04.063Z,31.50
2018-09-03T12:20:33.168Z,30.80
2018-09-03T12:23:02.621Z,30.20
2018-09-03T12:25:31.872Z,30.30
2018-09-03T12:28:01.777Z,30.50
2018-09-03T12:30:32.239Z,30.70
2018-09-03T12:33:01.674Z,30.70
2018-09-03T12:35:30.865Z,30.80
2018-09-03T12:38:00.053Z,30.50
2018-09-03T12:40:29.169Z,29.90
2018-09-03T12:42:59.884Z,29.80
2018-09-03T12:45:34.633Z,30.40
2018-09-03T12:48:03.702Z,30.90
2018-09-03T12:50:32.723Z,30.40
2018-09-03T12:53:01.810Z,30.50
2018-09-03T12:55:30.957Z,29.90
2018-09-03T12:57:59.953Z,29.60
2018-09-03T13:00:29.064Z,29.50
2018-09-03T13:02:58.140Z,29.50
2018-09-03T13:05:27.275Z,30.00
2018-09-03T13:07:56.360Z,30.60
2018-09-03T13:10:26.380Z,30.60
2018-09-03T13:12:55.421Z,30.80
2018-09-03T13:15:24.508Z,31.10
2018-09-03T13:17:54.004Z,31.40
2018-09-03T13:20:23.129Z,31.60
2018-09-03T13:22:52.517Z,31.80
2018-09-03T13:25:21.614Z,32.10
2018-09-03T13:27:50.659Z,32.50
2018-09-03T13:30:19.732Z,32.50
2018-09-03T13:32:48.703Z,32.50
2018-09-03T13:35:17.652Z,32.40
2018-09-03T13:37:46.899Z,32.10
2018-09-03T13:40:16.006Z,32.00
2018-09-03T13:42:45.075Z,32.10
2018-09-03T13:45:14.063Z,32.10
2018-09-03T13:47:43.203Z,31.50
2018-09-03T13:50:12.400Z,31.20
2018-09-03T13:52:41.469Z,30.90
2018-09-03T13:55:10.724Z,31.20
2018-09-03T13:57:40.074Z,31.10
2018-09-03T14:00:10.013Z,30.70
2018-09-03T14:02:39.268Z,30.50
2018-09-03T14:05:08.328Z,30.60
2018-09-03T14:07:37.337Z,30.80
2018-09-03T14:10:06.621Z,31.30
2018-09-03T14:12:36.145Z,31.50
2018-09-03T14:15:05.441Z,31.30
2018-09-03T14:17:34.556Z,31.30
2018-09-03T14:20:04.004Z,31.70
2018-09-03T14:22:33.124Z,31.30
2018-09-03T14:25:02.657Z,30.70
2018-09-03T14:27:31.762Z,29.90
2018-09-03T14:30:00.896Z,29.90
2018-09-03T14:32:29.860Z,29.80
2018-09-03T14:34:58.839Z,29.70
2018-09-03T14:37:27.892Z,29.50
2018-09-03T14:39:56.934Z,30.00
2018-09-03T14:42:26.534Z,30.80
2018-09-03T14:44:56.122Z,30.80
2018-09-03T14:47:25.126Z,31.40
2018-09-03T14:49:54.195Z,32.00
2018-09-03T14:52:23.460Z,31.70
2018-09-03T14:54:52.466Z,30.80
2018-09-03T14:57:21.521Z,30.20
2018-09-03T14:59:50.651Z,29.90
2018-09-03T15:02:20.005Z,29.60
2018-09-03T15:04:48.994Z,29.50
2018-09-03T15:07:17.989Z,29.20
2018-09-03T15:09:47.051Z,29.30
2018-09-03T15:12:16.173Z,29.20
2018-09-03T15:14:45.244Z,29.20
2018-09-03T15:17:14.378Z,29.50
2018-09-03T15:19:43.992Z,29.90
2018-09-03T15:22:13.067Z,30.30
2018-09-03T15:24:42.048Z,30.70
2018-09-03T15:27:11.204Z,29.90
2018-09-03T15:29:40.184Z,29.40
2018-09-03T15:32:09.263Z,29.90
2018-09-03T15:34:38.227Z,30.30
2018-09-03T15:37:07.320Z,30.10
2018-09-03T15:39:36.378Z,30.10
2018-09-03T15:42:05.390Z,30.10
2018-09-03T15:44:34.534Z,29.90
2018-09-03T15:47:04.369Z,29.30
2018-09-03T15:49:33.384Z,28.80
2018-09-03T15:52:03.397Z,28.60
2018-09-03T15:54:32.541Z,28.40
2018-09-03T15:57:02.055Z,28.20
2018-09-03T15:59:31.010Z,28.20
2018-09-03T16:02:00.166Z,28.20
2018-09-03T16:04:29.132Z,28.10
2018-09-03T16:06:58.635Z,28.00
2018-09-03T16:09:27.625Z,28.00
2018-09-03T16:11:56.617Z,27.90
2018-09-03T16:14:25.656Z,27.90
2018-09-03T16:16:54.662Z,27.80
2018-09-03T16:19:23.732Z,27.70
2018-09-03T16:21:53.064Z,27.60
2018-09-03T16:24:22.031Z,27.50
2018-09-03T16:26:51.550Z,27.40
2018-09-03T16:29:20.509Z,27.40
2018-09-03T16:31:49.474Z,27.30
2018-09-03T16:34:20.138Z,27.30
2018-09-03T16:36:49.101Z,27.30
2018-09-03T16:39:18.067Z,27.20
2018-09-03T16:41:47.152Z,27.20
2018-09-03T16:44:16.127Z,27.20
2018-09-03T16:46:45.161Z,27.10
2018-09-03T16:49:14.283Z,27.00
2018-09-03T16:51:43.715Z,27.00
2018-09-03T16:54:12.815Z,27.00
2018-09-03T16:56:41.893Z,26.90
2018-09-03T16:59:10.987Z,26.80
2018-09-03T17:01:39.946Z,26.80
2018-09-03T17:04:09.275Z,26.80
2018-09-03T17:06:38.316Z,26.70
2018-09-03T17:09:07.573Z,26.60
2018-09-03T17:11:36.535Z,26.60
2018-09-03T17:14:06.147Z,26.50
2018-09-03T17:16:35.114Z,26.50
2018-09-03T17:19:04.173Z,26.40
2018-09-03T17:21:33.348Z,26.40
2018-09-03T17:24:02.368Z,26.30
2018-09-03T17:26:31.307Z,26.20
2018-09-03T17:29:00.499Z,26.10
2018-09-03T17:31:29.476Z,26.10
2018-09-03T17:33:58.905Z,26.00
2018-09-03T17:36:27.895Z,26.00
2018-09-03T17:38:56.849Z,25.90
2018-09-03T17:41:25.849Z,25.80
2018-09-03T17:43:54.800Z,25.70
2018-09-03T17:46:23.884Z,25.60
2018-09-03T17:48:52.975Z,25.60
2018-09-03T17:51:21.990Z,25.50
2018-09-03T17:53:51.130Z,25.40
2018-09-03T17:56:20.888Z,25.30
2018-09-03T17:58:50.599Z,25.30
2018-09-03T18:01:20.098Z,25.20
2018-09-03T18:03:49.985Z,25.10
2018-09-03T18:06:19.641Z,25.00
2018-09-03T18:08:48.633Z,24.90
2018-09-03T18:11:17.680Z,24.90
2018-09-03T18:13:46.679Z,24.80
2018-09-03T18:16:16.095Z,24.70
2018-09-03T18:18:46.655Z,24.60
2018-09-03T18:21:16.088Z,24.60
2018-09-03T18:23:45.211Z,24.50
2018-09-03T18:26:14.822Z,24.40
2018-09-03T18:28:44.787Z,24.40
2018-09-03T18:31:15.532Z,24.30
2018-09-03T18:33:45.025Z,24.20
2018-09-03T18:36:14.347Z,24.20
2018-09-03T18:38:43.595Z,24.10
2018-09-03T18:41:13.442Z,24.10
2018-09-03T18:43:42.413Z,24.00
2018-09-03T18:46:11.722Z,24.00
2018-09-03T18:48:41.714Z,23.90
2018-09-03T18:51:10.829Z,23.90
2018-09-03T18:53:44.401Z,23.90
2018-09-03T18:56:13.611Z,23.80
2018-09-03T18:58:43.190Z,23.70
2018-09-03T19:01:13.017Z,23.70
2018-09-03T19:03:42.071Z,23.60
2018-09-03T19:06:11.313Z,23.60
2018-09-03T19:08:40.825Z,23.50
2018-09-03T19:11:10.097Z,23.50
2018-09-03T19:13:39.175Z,23.40
2018-09-03T19:16:08.262Z,23.30
2018-09-03T19:18:37.564Z,23.30
2018-09-03T19:21:06.876Z,23.30
2018-09-03T19:23:36.442Z,23.20
2018-09-03T19:26:06.143Z,23.10
2018-09-03T19:28:35.300Z,23.00
2018-09-03T19:31:05.228Z,23.00
2018-09-03T19:33:36.512Z,22.90
2018-09-03T19:36:05.596Z,22.90
2018-09-03T19:38:34.732Z,22.80
2018-09-03T19:41:03.844Z,22.80
2018-09-03T19:43:33.296Z,22.70
2018-09-03T19:46:02.840Z,22.60
2018-09-03T19:48:31.950Z,22.60
2018-09-03T19:51:01.143Z,22.50
2018-09-03T19:53:30.339Z,22.50
2018-09-03T19:55:59.978Z,22.40
2018-09-03T19:58:30.804Z,22.40
2018-09-03T20:01:00.378Z,22.30
2018-09-03T20:03:30.037Z,22.30
2018-09-03T20:05:59.864Z,22.20
2018-09-03T20:08:29.007Z,22.20
2018-09-03T20:10:58.580Z,22.10
2018-09-03T20:13:28.085Z,22.10
2018-09-03T20:15:57.179Z,22.00
2018-09-03T20:18:26.161Z,22.00
2018-09-03T20:20:55.177Z,21.90
2018-09-03T20:23:24.160Z,21.90
2018-09-03T20:25:53.690Z,21.80
2018-09-03T20:28:23.009Z,21.70
2018-09-03T20:30:52.224Z,21.70
2018-09-03T20:33:21.912Z,21.60
2018-09-03T20:35:51.555Z,21.60
2018-09-03T20:38:20.714Z,21.50
2018-09-03T20:40:49.789Z,21.40
2018-09-03T20:43:18.751Z,21.40
2018-09-03T20:45:47.736Z,21.30
2018-09-03T20:48:16.828Z,21.30
2018-09-03T20:50:45.836Z,21.30
2018-09-03T20:53:15.263Z,21.20
2018-09-03T20:55:44.881Z,21.20
2018-09-03T20:58:13.963Z,21.10
2018-09-03T21:00:44.336Z,21.00
2018-09-03T21:03:13.356Z,20.90
2018-09-03T21:05:42.376Z,20.90
2018-09-03T21:08:11.366Z,20.80
2018-09-03T21:10:40.616Z,20.70
2018-09-03T21:13:09.998Z,20.70
2018-09-03T21:15:39.111Z,20.60
2018-09-03T21:18:08.720Z,20.50
2018-09-03T21:20:37.780Z,20.50
2018-09-03T21:23:06.752Z,20.40
2018-09-03T21:25:35.718Z,20.40
2018-09-03T21:28:04.694Z,20.40
2018-09-03T21:30:33.809Z,20.30
2018-09-03T21:33:02.931Z,20.30
2018-09-03T21:35:31.903Z,20.20
2018-09-03T21:38:00.997Z,20.20
2018-09-03T21:40:30.069Z,20.10
2018-09-03T21:42:59.090Z,20.00
2018-09-03T21:45:28.106Z,20.00
2018-09-03T21:47:57.155Z,19.90
2018-09-03T21:50:26.132Z,19.90
2018-09-03T21:52:55.264Z,19.90
2018-09-03T21:55:24.359Z,19.80
2018-09-03T21:57:53.366Z,19.80
2018-09-03T22:00:22.333Z,19.70
2018-09-03T22:02:51.311Z,19.60
2018-09-03T22:05:20.600Z,19.60
2018-09-03T22:07:49.638Z,19.60
2018-09-03T22:10:18.862Z,19.50
2018-09-03T22:12:47.871Z,19.40
2018-09-03T22:15:16.829Z,19.40
2018-09-03T22:17:46.528Z,19.30
2018-09-03T22:20:15.501Z,19.30
2018-09-03T22:22:44.600Z,19.20
2018-09-03T22:25:13.543Z,19.20
2018-09-03T22:27:42.581Z,19.10
2018-09-03T22:30:11.845Z,19.10
2018-09-03T22:32:40.772Z,19.00
2018-09-03T22:35:09.756Z,19.00
2018-09-03T22:37:38.713Z,19.00
2018-09-03T22:40:07.669Z,18.90
2018-09-03T22:42:37.345Z,18.90
2018-09-03T22:45:06.485Z,18.80
2018-09-03T22:47:35.511Z,18.80
2018-09-03T22:50:04.498Z,18.80
2018-09-03T22:52:34.311Z,18.80
2018-09-03T22:55:03.285Z,18.70
2018-09-03T22:57:32.253Z,18.70
2018-09-03T23:00:01.328Z,18.70
2018-09-03T23:02:31.429Z,18.60
2018-09-03T23:05:00.460Z,18.60
2018-09-03T23:07:29.398Z,18.60
2018-09-03T23:09:58.403Z,18.50
2018-09-03T23:12:27.353Z,18.50
2018-09-03T23:14:56.334Z,18.40
2018-09-03T23:17:25.371Z,18.40
2018-09-03T23:19:54.810Z,18.30
2018-09-03T23:22:23.755Z,18.30
2018-09-03T23:24:52.921Z,18.30
2018-09-03T23:27:22.403Z,18.20
2018-09-03T23:29:51.389Z,18.20
2018-09-03T23:32:20.479Z,18.20
2018-09-03T23:34:49.469Z,18.10
2018-09-03T23:37:18.404Z,18.10
2018-09-03T23:39:47.541Z,18.00
2018-09-03T23:42:16.502Z,18.00
2018-09-03T23:44:45.519Z,18.00
2018-09-03T23:47:14.505Z,18.00
2018-09-03T23:49:43.506Z,17.90
2018-09-03T23:52:12.547Z,17.80
2018-09-03T23:54:41.656Z,17.80
2018-09-03T23:57:10.602Z,17.80
